Edenville, Michigan
Current Conditions -  °F | °C
As of 2:32 AM on Thursday 23 Oct 2014 (Local Time) from KIKW Reporting Station
Scattered Clouds Scattered Clouds  
Wind Chill: -2°   Ceiling: Unl
Heat Index: -2°   Visibility: 10mi
Dew Point: -2°   Wind: 0mph
Humidity: 99%   Direction: NA
Pressure: 30.29"   Gusts: NA
Location:  43.8°N, 84.38°W
Report Text: KIKW 230632Z AUTO 00000KT 10SM SCT001 M02/M02 A3029 RMK AO2 T10191020
Loading
Personal Weather Stations






























Interactive Weather Map
Tropical Storm Tracking
New forecast layout! Learn more

10-Day Weather Forecast

Advertisements
Track Severe Weather on mobile